sensor_id;sensor_type;location;lat;lon;timestamp;P1;durP1;ratioP1;P2;durP2;ratioP2
64875;SDS011;51369;49.862;9.908;2024-01-30T00:00:58;16.23;;;8.85;;
64875;SDS011;51369;49.862;9.908;2024-01-30T00:03:24;16.58;;;8.52;;
64875;SDS011;51369;49.862;9.908;2024-01-30T00:05:49;18.13;;;8.98;;
64875;SDS011;51369;49.862;9.908;2024-01-30T00:08:14;20.45;;;11.25;;
64875;SDS011;51369;49.862;9.908;2024-01-30T00:10:40;27.30;;;12.25;;
64875;SDS011;51369;49.862;9.908;2024-01-30T00:13:05;26.25;;;10.80;;
64875;SDS011;51369;49.862;9.908;2024-01-30T00:15:30;26.13;;;12.35;;
64875;SDS011;51369;49.862;9.908;2024-01-30T00:17:56;24.77;;;10.80;;
64875;SDS011;51369;49.862;9.908;2024-01-30T00:20:21;21.42;;;11.10;;
64875;SDS011;51369;49.862;9.908;2024-01-30T00:22:47;21.27;;;11.45;;
64875;SDS011;51369;49.862;9.908;2024-01-30T00:25:12;22.10;;;11.60;;
64875;SDS011;51369;49.862;9.908;2024-01-30T00:27:38;18.02;;;10.60;;
64875;SDS011;51369;49.862;9.908;2024-01-30T00:30:03;19.90;;;10.70;;
64875;SDS011;51369;49.862;9.908;2024-01-30T00:32:30;17.05;;;9.73;;
64875;SDS011;51369;49.862;9.908;2024-01-30T00:34:56;23.13;;;10.38;;
64875;SDS011;51369;49.862;9.908;2024-01-30T00:37:21;21.23;;;11.13;;
64875;SDS011;51369;49.862;9.908;2024-01-30T00:39:46;23.50;;;12.07;;
64875;SDS011;51369;49.862;9.908;2024-01-30T00:42:12;20.58;;;11.40;;
64875;SDS011;51369;49.862;9.908;2024-01-30T00:44:37;24.67;;;10.90;;
64875;SDS011;51369;49.862;9.908;2024-01-30T00:47:03;21.10;;;11.55;;
64875;SDS011;51369;49.862;9.908;2024-01-30T00:49:29;23.42;;;11.43;;
64875;SDS011;51369;49.862;9.908;2024-01-30T00:51:55;20.20;;;10.13;;
64875;SDS011;51369;49.862;9.908;2024-01-30T00:54:20;14.20;;;7.30;;
64875;SDS011;51369;49.862;9.908;2024-01-30T00:56:45;15.40;;;7.95;;
64875;SDS011;51369;49.862;9.908;2024-01-30T00:59:11;13.23;;;7.55;;
64875;SDS011;51369;49.862;9.908;2024-01-30T01:01:37;15.68;;;8.20;;
64875;SDS011;51369;49.862;9.908;2024-01-30T01:04:02;17.75;;;8.60;;
64875;SDS011;51369;49.862;9.908;2024-01-30T01:06:27;12.23;;;7.40;;
64875;SDS011;51369;49.862;9.908;2024-01-30T01:08:53;15.57;;;8.93;;
64875;SDS011;51369;49.862;9.908;2024-01-30T01:11:18;14.80;;;8.38;;
64875;SDS011;51369;49.862;9.908;2024-01-30T01:13:44;15.05;;;7.55;;
64875;SDS011;51369;49.862;9.908;2024-01-30T01:16:09;14.25;;;8.13;;
64875;SDS011;51369;49.862;9.908;2024-01-30T01:18:34;15.38;;;8.90;;
64875;SDS011;51369;49.862;9.908;2024-01-30T01:21:00;15.57;;;8.55;;
64875;SDS011;51369;49.862;9.908;2024-01-30T01:23:26;18.23;;;8.40;;
64875;SDS011;51369;49.862;9.908;2024-01-30T01:25:51;22.92;;;9.52;;
64875;SDS011;51369;49.862;9.908;2024-01-30T01:28:17;14.50;;;8.40;;
64875;SDS011;51369;49.862;9.908;2024-01-30T01:30:43;15.18;;;8.68;;
64875;SDS011;51369;49.862;9.908;2024-01-30T01:33:09;16.50;;;8.65;;
64875;SDS011;51369;49.862;9.908;2024-01-30T01:35:34;12.73;;;8.27;;
64875;SDS011;51369;49.862;9.908;2024-01-30T01:38:00;14.88;;;8.40;;
64875;SDS011;51369;49.862;9.908;2024-01-30T01:40:26;16.42;;;8.75;;
64875;SDS011;51369;49.862;9.908;2024-01-30T01:42:52;16.20;;;8.10;;
64875;SDS011;51369;49.862;9.908;2024-01-30T01:45:18;17.95;;;9.13;;
64875;SDS011;51369;49.862;9.908;2024-01-30T01:47:45;17.10;;;9.35;;
64875;SDS011;51369;49.862;9.908;2024-01-30T01:50:16;17.67;;;9.77;;
64875;SDS011;51369;49.862;9.908;2024-01-30T01:52:47;18.75;;;8.32;;
64875;SDS011;51369;49.862;9.908;2024-01-30T01:55:13;15.15;;;9.35;;
64875;SDS011;51369;49.862;9.908;2024-01-30T01:57:39;16.02;;;8.48;;
64875;SDS011;51369;49.862;9.908;2024-01-30T02:00:06;19.70;;;9.50;;
64875;SDS011;51369;49.862;9.908;2024-01-30T02:02:35;18.65;;;9.75;;
64875;SDS011;51369;49.862;9.908;2024-01-30T02:05:02;19.90;;;9.27;;
64875;SDS011;51369;49.862;9.908;2024-01-30T02:07:27;15.93;;;9.57;;
64875;SDS011;51369;49.862;9.908;2024-01-30T02:09:53;16.67;;;8.40;;
64875;SDS011;51369;49.862;9.908;2024-01-30T02:12:19;18.48;;;10.10;;
64875;SDS011;51369;49.862;9.908;2024-01-30T02:14:47;19.30;;;9.05;;
64875;SDS011;51369;49.862;9.908;2024-01-30T02:17:15;14.25;;;8.73;;
64875;SDS011;51369;49.862;9.908;2024-01-30T02:19:42;14.27;;;8.60;;
64875;SDS011;51369;49.862;9.908;2024-01-30T02:22:07;17.05;;;8.50;;
64875;SDS011;51369;49.862;9.908;2024-01-30T02:24:33;20.40;;;8.05;;
64875;SDS011;51369;49.862;9.908;2024-01-30T02:26:59;17.08;;;8.02;;
64875;SDS011;51369;49.862;9.908;2024-01-30T02:29:24;17.98;;;9.50;;
64875;SDS011;51369;49.862;9.908;2024-01-30T02:31:49;17.80;;;8.88;;
64875;SDS011;51369;49.862;9.908;2024-01-30T02:34:15;21.13;;;9.40;;
64875;SDS011;51369;49.862;9.908;2024-01-30T02:36:44;13.65;;;8.85;;
64875;SDS011;51369;49.862;9.908;2024-01-30T02:39:10;14.45;;;8.50;;
64875;SDS011;51369;49.862;9.908;2024-01-30T02:41:35;17.35;;;8.55;;
64875;SDS011;51369;49.862;9.908;2024-01-30T02:44:01;19.83;;;9.07;;
64875;SDS011;51369;49.862;9.908;2024-01-30T02:46:27;19.25;;;8.98;;
64875;SDS011;51369;49.862;9.908;2024-01-30T02:48:53;18.58;;;9.48;;
64875;SDS011;51369;49.862;9.908;2024-01-30T02:51:18;13.70;;;8.20;;
64875;SDS011;51369;49.862;9.908;2024-01-30T02:53:43;16.48;;;9.45;;
64875;SDS011;51369;49.862;9.908;2024-01-30T02:56:09;17.80;;;9.18;;
64875;SDS011;51369;49.862;9.908;2024-01-30T02:58:38;14.45;;;8.90;;
64875;SDS011;51369;49.862;9.908;2024-01-30T03:01:04;18.00;;;8.77;;
64875;SDS011;51369;49.862;9.908;2024-01-30T03:03:30;17.85;;;9.13;;
64875;SDS011;51369;49.862;9.908;2024-01-30T03:05:55;16.67;;;9.15;;
64875;SDS011;51369;49.862;9.908;2024-01-30T03:08:20;14.48;;;9.20;;
64875;SDS011;51369;49.862;9.908;2024-01-30T03:10:46;16.27;;;8.63;;
64875;SDS011;51369;49.862;9.908;2024-01-30T03:13:11;18.27;;;10.02;;
64875;SDS011;51369;49.862;9.908;2024-01-30T03:15:37;19.52;;;10.20;;
64875;SDS011;51369;49.862;9.908;2024-01-30T03:18:02;21.98;;;10.05;;
64875;SDS011;51369;49.862;9.908;2024-01-30T03:20:31;20.85;;;11.23;;
64875;SDS011;51369;49.862;9.908;2024-01-30T03:22:57;17.45;;;10.00;;
64875;SDS011;51369;49.862;9.908;2024-01-30T03:25:24;19.15;;;10.25;;
64875;SDS011;51369;49.862;9.908;2024-01-30T03:27:50;15.38;;;9.07;;
64875;SDS011;51369;49.862;9.908;2024-01-30T03:30:15;16.95;;;9.63;;
64875;SDS011;51369;49.862;9.908;2024-01-30T03:32:40;17.15;;;10.10;;
64875;SDS011;51369;49.862;9.908;2024-01-30T03:35:06;16.38;;;9.75;;
64875;SDS011;51369;49.862;9.908;2024-01-30T03:37:32;19.42;;;9.40;;
64875;SDS011;51369;49.862;9.908;2024-01-30T03:39:57;16.33;;;9.52;;
64875;SDS011;51369;49.862;9.908;2024-01-30T03:42:23;17.55;;;9.77;;
64875;SDS011;51369;49.862;9.908;2024-01-30T03:44:48;18.67;;;9.82;;
64875;SDS011;51369;49.862;9.908;2024-01-30T03:47:16;17.30;;;9.43;;
64875;SDS011;51369;49.862;9.908;2024-01-30T03:49:42;14.75;;;9.23;;
64875;SDS011;51369;49.862;9.908;2024-01-30T03:52:07;15.15;;;9.80;;
64875;SDS011;51369;49.862;9.908;2024-01-30T03:54:32;20.05;;;10.02;;
64875;SDS011;51369;49.862;9.908;2024-01-30T03:56:58;16.90;;;9.35;;
64875;SDS011;51369;49.862;9.908;2024-01-30T03:59:23;17.52;;;9.18;;
64875;SDS011;51369;49.862;9.908;2024-01-30T04:01:50;17.95;;;10.57;;
64875;SDS011;51369;49.862;9.908;2024-01-30T04:04:16;18.60;;;9.75;;
64875;SDS011;51369;49.862;9.908;2024-01-30T04:06:42;18.63;;;10.73;;
64875;SDS011;51369;49.862;9.908;2024-01-30T04:09:08;15.73;;;9.35;;
64875;SDS011;51369;49.862;9.908;2024-01-30T04:11:34;15.30;;;9.32;;
64875;SDS011;51369;49.862;9.908;2024-01-30T04:13:59;17.13;;;10.50;;
64875;SDS011;51369;49.862;9.908;2024-01-30T04:16:24;17.58;;;9.95;;
64875;SDS011;51369;49.862;9.908;2024-01-30T04:18:50;16.67;;;9.48;;
64875;SDS011;51369;49.862;9.908;2024-01-30T04:21:16;17.77;;;9.13;;
64875;SDS011;51369;49.862;9.908;2024-01-30T04:23:42;18.40;;;9.25;;
64875;SDS011;51369;49.862;9.908;2024-01-30T04:26:07;16.30;;;8.45;;
64875;SDS011;51369;49.862;9.908;2024-01-30T04:28:33;16.10;;;9.18;;
64875;SDS011;51369;49.862;9.908;2024-01-30T04:30:58;14.00;;;9.05;;
64875;SDS011;51369;49.862;9.908;2024-01-30T04:33:24;16.40;;;9.82;;
64875;SDS011;51369;49.862;9.908;2024-01-30T04:35:49;17.45;;;9.93;;
64875;SDS011;51369;49.862;9.908;2024-01-30T04:38:14;19.73;;;9.82;;
64875;SDS011;51369;49.862;9.908;2024-01-30T04:40:40;15.38;;;9.73;;
64875;SDS011;51369;49.862;9.908;2024-01-30T04:43:05;17.83;;;9.45;;
64875;SDS011;51369;49.862;9.908;2024-01-30T04:45:31;15.93;;;9.98;;
64875;SDS011;51369;49.862;9.908;2024-01-30T04:47:56;19.52;;;9.90;;
64875;SDS011;51369;49.862;9.908;2024-01-30T04:50:22;17.08;;;9.95;;
64875;SDS011;51369;49.862;9.908;2024-01-30T04:52:48;22.17;;;10.05;;
64875;SDS011;51369;49.862;9.908;2024-01-30T04:55:14;17.40;;;9.13;;
64875;SDS011;51369;49.862;9.908;2024-01-30T04:57:39;17.77;;;9.73;;
64875;SDS011;51369;49.862;9.908;2024-01-30T05:00:04;17.90;;;11.23;;
64875;SDS011;51369;49.862;9.908;2024-01-30T05:02:30;18.23;;;9.55;;
64875;SDS011;51369;49.862;9.908;2024-01-30T05:04:56;18.75;;;10.52;;
64875;SDS011;51369;49.862;9.908;2024-01-30T05:07:22;17.08;;;9.65;;
64875;SDS011;51369;49.862;9.908;2024-01-30T05:09:48;17.65;;;9.85;;
64875;SDS011;51369;49.862;9.908;2024-01-30T05:12:13;20.40;;;9.93;;
64875;SDS011;51369;49.862;9.908;2024-01-30T05:14:39;16.50;;;10.25;;
64875;SDS011;51369;49.862;9.908;2024-01-30T05:17:04;21.33;;;10.70;;
64875;SDS011;51369;49.862;9.908;2024-01-30T05:19:29;19.70;;;10.73;;
64875;SDS011;51369;49.862;9.908;2024-01-30T05:21:55;21.80;;;10.80;;
64875;SDS011;51369;49.862;9.908;2024-01-30T05:24:20;20.63;;;10.88;;
64875;SDS011;51369;49.862;9.908;2024-01-30T05:26:45;19.52;;;10.63;;
64875;SDS011;51369;49.862;9.908;2024-01-30T05:29:12;18.98;;;10.70;;
64875;SDS011;51369;49.862;9.908;2024-01-30T05:31:37;16.35;;;10.30;;
64875;SDS011;51369;49.862;9.908;2024-01-30T05:34:03;24.08;;;11.45;;
64875;SDS011;51369;49.862;9.908;2024-01-30T05:36:28;22.88;;;10.52;;
64875;SDS011;51369;49.862;9.908;2024-01-30T05:38:53;16.73;;;9.77;;
64875;SDS011;51369;49.862;9.908;2024-01-30T05:41:19;19.05;;;10.60;;
64875;SDS011;51369;49.862;9.908;2024-01-30T05:43:46;22.15;;;10.68;;
64875;SDS011;51369;49.862;9.908;2024-01-30T05:46:11;20.30;;;10.35;;
64875;SDS011;51369;49.862;9.908;2024-01-30T05:48:36;18.75;;;11.00;;
64875;SDS011;51369;49.862;9.908;2024-01-30T05:51:02;21.50;;;11.65;;
64875;SDS011;51369;49.862;9.908;2024-01-30T05:53:28;16.20;;;10.25;;
64875;SDS011;51369;49.862;9.908;2024-01-30T05:55:54;20.88;;;11.95;;
64875;SDS011;51369;49.862;9.908;2024-01-30T05:58:19;21.08;;;12.20;;
64875;SDS011;51369;49.862;9.908;2024-01-30T06:00:44;24.50;;;12.80;;
64875;SDS011;51369;49.862;9.908;2024-01-30T06:03:10;22.25;;;11.85;;
64875;SDS011;51369;49.862;9.908;2024-01-30T06:05:35;24.40;;;11.77;;
64875;SDS011;51369;49.862;9.908;2024-01-30T06:08:01;22.63;;;11.88;;
64875;SDS011;51369;49.862;9.908;2024-01-30T06:10:27;22.20;;;12.23;;
64875;SDS011;51369;49.862;9.908;2024-01-30T06:12:53;19.00;;;11.18;;
64875;SDS011;51369;49.862;9.908;2024-01-30T06:15:18;22.92;;;11.70;;
64875;SDS011;51369;49.862;9.908;2024-01-30T06:17:43;22.45;;;12.38;;
64875;SDS011;51369;49.862;9.908;2024-01-30T06:20:09;26.88;;;12.10;;
64875;SDS011;51369;49.862;9.908;2024-01-30T06:22:34;29.80;;;13.60;;
64875;SDS011;51369;49.862;9.908;2024-01-30T06:24:59;25.60;;;13.55;;
64875;SDS011;51369;49.862;9.908;2024-01-30T06:27:25;26.33;;;14.32;;
64875;SDS011;51369;49.862;9.908;2024-01-30T06:29:50;28.92;;;14.57;;
64875;SDS011;51369;49.862;9.908;2024-01-30T06:32:15;27.17;;;15.18;;
64875;SDS011;51369;49.862;9.908;2024-01-30T06:34:42;25.08;;;13.10;;
64875;SDS011;51369;49.862;9.908;2024-01-30T06:37:09;24.30;;;13.55;;
64875;SDS011;51369;49.862;9.908;2024-01-30T06:39:35;33.85;;;17.63;;
64875;SDS011;51369;49.862;9.908;2024-01-30T06:42:00;30.55;;;17.65;;
64875;SDS011;51369;49.862;9.908;2024-01-30T06:44:26;39.55;;;16.73;;
64875;SDS011;51369;49.862;9.908;2024-01-30T06:46:51;29.52;;;17.33;;
64875;SDS011;51369;49.862;9.908;2024-01-30T06:49:16;25.80;;;13.80;;
64875;SDS011;51369;49.862;9.908;2024-01-30T06:51:42;22.45;;;14.45;;
64875;SDS011;51369;49.862;9.908;2024-01-30T06:54:07;24.92;;;13.23;;
64875;SDS011;51369;49.862;9.908;2024-01-30T06:56:33;28.08;;;13.98;;
64875;SDS011;51369;49.862;9.908;2024-01-30T06:58:59;22.33;;;12.90;;
64875;SDS011;51369;49.862;9.908;2024-01-30T07:01:28;21.10;;;12.77;;
64875;SDS011;51369;49.862;9.908;2024-01-30T07:03:54;21.55;;;13.32;;
64875;SDS011;51369;49.862;9.908;2024-01-30T07:06:20;22.13;;;12.77;;
64875;SDS011;51369;49.862;9.908;2024-01-30T07:08:46;24.40;;;12.85;;
64875;SDS011;51369;49.862;9.908;2024-01-30T07:11:17;27.05;;;15.50;;
64875;SDS011;51369;49.862;9.908;2024-01-30T07:13:43;29.52;;;16.23;;
64875;SDS011;51369;49.862;9.908;2024-01-30T07:16:09;24.60;;;13.27;;
64875;SDS011;51369;49.862;9.908;2024-01-30T07:18:34;23.42;;;12.30;;
64875;SDS011;51369;49.862;9.908;2024-01-30T07:21:00;25.63;;;12.77;;
64875;SDS011;51369;49.862;9.908;2024-01-30T07:23:25;29.95;;;14.82;;
64875;SDS011;51369;49.862;9.908;2024-01-30T07:25:50;26.67;;;14.32;;
64875;SDS011;51369;49.862;9.908;2024-01-30T07:28:16;37.92;;;17.95;;
64875;SDS011;51369;49.862;9.908;2024-01-30T07:30:44;29.77;;;15.18;;
64875;SDS011;51369;49.862;9.908;2024-01-30T07:33:10;27.65;;;14.80;;
64875;SDS011;51369;49.862;9.908;2024-01-30T07:35:35;28.67;;;15.88;;
64875;SDS011;51369;49.862;9.908;2024-01-30T07:38:01;34.40;;;17.40;;
64875;SDS011;51369;49.862;9.908;2024-01-30T07:40:27;46.50;;;20.75;;
64875;SDS011;51369;49.862;9.908;2024-01-30T07:42:53;25.67;;;14.38;;
64875;SDS011;51369;49.862;9.908;2024-01-30T07:45:18;25.90;;;14.93;;
64875;SDS011;51369;49.862;9.908;2024-01-30T07:47:48;23.67;;;13.82;;
64875;SDS011;51369;49.862;9.908;2024-01-30T07:50:14;21.70;;;12.57;;
64875;SDS011;51369;49.862;9.908;2024-01-30T07:52:39;59.67;;;26.92;;
64875;SDS011;51369;49.862;9.908;2024-01-30T07:55:05;36.10;;;16.25;;
64875;SDS011;51369;49.862;9.908;2024-01-30T07:57:32;28.23;;;14.02;;
64875;SDS011;51369;49.862;9.908;2024-01-30T07:59:59;24.92;;;13.40;;
64875;SDS011;51369;49.862;9.908;2024-01-30T08:02:25;26.65;;;13.75;;
64875;SDS011;51369;49.862;9.908;2024-01-30T08:04:50;26.40;;;13.13;;
64875;SDS011;51369;49.862;9.908;2024-01-30T08:07:16;27.40;;;14.38;;
64875;SDS011;51369;49.862;9.908;2024-01-30T08:09:42;24.85;;;14.30;;
64875;SDS011;51369;49.862;9.908;2024-01-30T08:12:08;25.55;;;13.88;;
64875;SDS011;51369;49.862;9.908;2024-01-30T08:14:33;27.65;;;14.63;;
64875;SDS011;51369;49.862;9.908;2024-01-30T08:16:59;23.00;;;13.98;;
64875;SDS011;51369;49.862;9.908;2024-01-30T08:19:24;23.98;;;14.20;;
64875;SDS011;51369;49.862;9.908;2024-01-30T08:21:49;30.33;;;15.35;;
64875;SDS011;51369;49.862;9.908;2024-01-30T08:24:15;28.90;;;14.43;;
64875;SDS011;51369;49.862;9.908;2024-01-30T08:26:40;24.33;;;14.25;;
64875;SDS011;51369;49.862;9.908;2024-01-30T08:29:06;31.85;;;16.48;;
64875;SDS011;51369;49.862;9.908;2024-01-30T08:31:32;30.98;;;16.50;;
64875;SDS011;51369;49.862;9.908;2024-01-30T08:33:57;27.85;;;16.23;;
64875;SDS011;51369;49.862;9.908;2024-01-30T08:36:25;31.00;;;16.25;;
64875;SDS011;51369;49.862;9.908;2024-01-30T08:38:50;31.17;;;16.42;;
64875;SDS011;51369;49.862;9.908;2024-01-30T08:41:16;29.08;;;16.30;;
64875;SDS011;51369;49.862;9.908;2024-01-30T08:43:41;30.42;;;17.05;;
64875;SDS011;51369;49.862;9.908;2024-01-30T08:46:06;32.35;;;16.60;;
64875;SDS011;51369;49.862;9.908;2024-01-30T08:48:32;30.73;;;16.20;;
64875;SDS011;51369;49.862;9.908;2024-01-30T08:50:57;27.83;;;16.35;;
64875;SDS011;51369;49.862;9.908;2024-01-30T08:53:22;33.22;;;16.50;;
64875;SDS011;51369;49.862;9.908;2024-01-30T08:55:48;72.78;;;32.03;;
64875;SDS011;51369;49.862;9.908;2024-01-30T08:58:13;70.32;;;32.63;;
64875;SDS011;51369;49.862;9.908;2024-01-30T09:00:38;42.58;;;22.42;;
64875;SDS011;51369;49.862;9.908;2024-01-30T09:03:04;40.53;;;18.50;;
64875;SDS011;51369;49.862;9.908;2024-01-30T09:05:29;40.03;;;20.55;;
64875;SDS011;51369;49.862;9.908;2024-01-30T09:07:55;45.47;;;21.85;;
64875;SDS011;51369;49.862;9.908;2024-01-30T09:10:20;42.72;;;23.40;;
64875;SDS011;51369;49.862;9.908;2024-01-30T09:12:46;48.35;;;24.63;;
64875;SDS011;51369;49.862;9.908;2024-01-30T09:15:12;57.05;;;28.05;;
64875;SDS011;51369;49.862;9.908;2024-01-30T09:17:37;40.67;;;20.20;;
64875;SDS011;51369;49.862;9.908;2024-01-30T09:20:03;38.33;;;20.10;;
64875;SDS011;51369;49.862;9.908;2024-01-30T09:22:29;32.13;;;18.02;;
64875;SDS011;51369;49.862;9.908;2024-01-30T09:24:54;32.08;;;18.67;;
64875;SDS011;51369;49.862;9.908;2024-01-30T09:27:20;46.13;;;21.00;;
64875;SDS011;51369;49.862;9.908;2024-01-30T09:29:45;39.10;;;20.60;;
64875;SDS011;51369;49.862;9.908;2024-01-30T09:32:10;41.70;;;23.05;;
64875;SDS011;51369;49.862;9.908;2024-01-30T09:34:36;38.83;;;20.25;;
64875;SDS011;51369;49.862;9.908;2024-01-30T09:37:01;33.55;;;20.15;;
64875;SDS011;51369;49.862;9.908;2024-01-30T09:39:27;34.45;;;21.10;;
64875;SDS011;51369;49.862;9.908;2024-01-30T09:42:00;39.05;;;21.90;;
64875;SDS011;51369;49.862;9.908;2024-01-30T09:44:30;38.75;;;22.90;;
64875;SDS011;51369;49.862;9.908;2024-01-30T09:46:55;43.03;;;22.60;;
64875;SDS011;51369;49.862;9.908;2024-01-30T09:49:23;39.05;;;22.38;;
64875;SDS011;51369;49.862;9.908;2024-01-30T09:51:50;46.65;;;26.73;;
64875;SDS011;51369;49.862;9.908;2024-01-30T09:54:15;46.08;;;23.73;;
64875;SDS011;51369;49.862;9.908;2024-01-30T09:56:41;44.53;;;25.95;;
64875;SDS011;51369;49.862;9.908;2024-01-30T09:59:07;42.10;;;25.25;;
64875;SDS011;51369;49.862;9.908;2024-01-30T10:01:34;57.60;;;31.63;;
64875;SDS011;51369;49.862;9.908;2024-01-30T10:04:00;53.65;;;31.25;;
64875;SDS011;51369;49.862;9.908;2024-01-30T10:06:25;61.67;;;33.72;;
64875;SDS011;51369;49.862;9.908;2024-01-30T10:08:52;54.63;;;30.85;;
64875;SDS011;51369;49.862;9.908;2024-01-30T10:11:17;54.55;;;30.85;;
64875;SDS011;51369;49.862;9.908;2024-01-30T10:13:42;52.35;;;32.00;;
64875;SDS011;51369;49.862;9.908;2024-01-30T10:16:08;53.72;;;29.90;;
64875;SDS011;51369;49.862;9.908;2024-01-30T10:18:34;42.90;;;25.83;;
64875;SDS011;51369;49.862;9.908;2024-01-30T10:20:59;42.03;;;25.75;;
64875;SDS011;51369;49.862;9.908;2024-01-30T10:23:25;45.97;;;24.35;;
64875;SDS011;51369;49.862;9.908;2024-01-30T10:25:51;39.85;;;23.83;;
64875;SDS011;51369;49.862;9.908;2024-01-30T10:28:17;36.05;;;22.88;;
64875;SDS011;51369;49.862;9.908;2024-01-30T10:30:42;36.25;;;22.73;;
64875;SDS011;51369;49.862;9.908;2024-01-30T10:33:08;37.60;;;22.17;;
64875;SDS011;51369;49.862;9.908;2024-01-30T10:35:33;36.63;;;22.52;;
64875;SDS011;51369;49.862;9.908;2024-01-30T10:37:59;31.75;;;20.85;;
64875;SDS011;51369;49.862;9.908;2024-01-30T10:40:26;31.17;;;19.85;;
64875;SDS011;51369;49.862;9.908;2024-01-30T10:42:53;31.45;;;19.88;;
64875;SDS011;51369;49.862;9.908;2024-01-30T10:45:20;34.53;;;20.50;;
64875;SDS011;51369;49.862;9.908;2024-01-30T10:47:50;31.35;;;19.73;;
64875;SDS011;51369;49.862;9.908;2024-01-30T10:50:21;33.92;;;19.55;;
64875;SDS011;51369;49.862;9.908;2024-01-30T10:52:49;31.00;;;18.55;;
64875;SDS011;51369;49.862;9.908;2024-01-30T10:55:16;30.27;;;19.27;;
64875;SDS011;51369;49.862;9.908;2024-01-30T10:57:43;31.42;;;18.33;;
64875;SDS011;51369;49.862;9.908;2024-01-30T11:00:08;32.75;;;20.05;;
64875;SDS011;51369;49.862;9.908;2024-01-30T11:02:39;35.50;;;19.55;;
64875;SDS011;51369;49.862;9.908;2024-01-30T11:05:06;32.92;;;18.13;;
64875;SDS011;51369;49.862;9.908;2024-01-30T11:07:31;30.00;;;18.10;;
64875;SDS011;51369;49.862;9.908;2024-01-30T11:12:23;32.28;;;18.92;;
64875;SDS011;51369;49.862;9.908;2024-01-30T11:14:49;32.65;;;19.10;;
64875;SDS011;51369;49.862;9.908;2024-01-30T11:17:15;30.08;;;18.58;;
64875;SDS011;51369;49.862;9.908;2024-01-30T11:19:41;31.63;;;19.75;;
64875;SDS011;51369;49.862;9.908;2024-01-30T11:22:07;27.02;;;18.20;;
64875;SDS011;51369;49.862;9.908;2024-01-30T11:24:38;28.45;;;17.83;;
64875;SDS011;51369;49.862;9.908;2024-01-30T11:27:10;28.02;;;18.05;;
64875;SDS011;51369;49.862;9.908;2024-01-30T11:29:35;28.35;;;18.17;;
64875;SDS011;51369;49.862;9.908;2024-01-30T11:32:01;30.50;;;18.42;;
64875;SDS011;51369;49.862;9.908;2024-01-30T11:34:27;31.23;;;18.88;;
64875;SDS011;51369;49.862;9.908;2024-01-30T11:36:56;31.30;;;17.30;;
64875;SDS011;51369;49.862;9.908;2024-01-30T11:39:27;27.92;;;18.75;;
64875;SDS011;51369;49.862;9.908;2024-01-30T11:41:52;26.25;;;16.95;;
64875;SDS011;51369;49.862;9.908;2024-01-30T11:44:21;29.30;;;19.15;;
64875;SDS011;51369;49.862;9.908;2024-01-30T11:46:48;29.55;;;18.25;;
64875;SDS011;51369;49.862;9.908;2024-01-30T11:49:14;29.58;;;18.00;;
64875;SDS011;51369;49.862;9.908;2024-01-30T11:51:40;31.88;;;18.55;;
64875;SDS011;51369;49.862;9.908;2024-01-30T11:54:06;33.67;;;19.92;;
64875;SDS011;51369;49.862;9.908;2024-01-30T11:56:32;31.83;;;18.42;;
64875;SDS011;51369;49.862;9.908;2024-01-30T11:58:58;29.08;;;18.52;;
64875;SDS011;51369;49.862;9.908;2024-01-30T12:01:25;30.45;;;18.55;;
64875;SDS011;51369;49.862;9.908;2024-01-30T12:03:51;30.77;;;19.13;;
64875;SDS011;51369;49.862;9.908;2024-01-30T12:06:17;29.52;;;18.08;;
64875;SDS011;51369;49.862;9.908;2024-01-30T12:08:42;34.17;;;20.20;;
64875;SDS011;51369;49.862;9.908;2024-01-30T12:11:08;33.80;;;19.33;;
64875;SDS011;51369;49.862;9.908;2024-01-30T12:13:33;32.85;;;18.60;;
64875;SDS011;51369;49.862;9.908;2024-01-30T12:16:02;29.63;;;19.20;;
64875;SDS011;51369;49.862;9.908;2024-01-30T12:18:27;27.52;;;18.58;;
64875;SDS011;51369;49.862;9.908;2024-01-30T12:20:59;30.38;;;19.25;;
64875;SDS011;51369;49.862;9.908;2024-01-30T12:23:25;29.33;;;18.98;;
64875;SDS011;51369;49.862;9.908;2024-01-30T12:25:52;30.42;;;19.95;;
64875;SDS011;51369;49.862;9.908;2024-01-30T12:28:18;29.30;;;19.10;;
64875;SDS011;51369;49.862;9.908;2024-01-30T12:30:43;32.05;;;20.38;;
64875;SDS011;51369;49.862;9.908;2024-01-30T12:33:08;33.80;;;20.55;;
64875;SDS011;51369;49.862;9.908;2024-01-30T12:35:35;35.45;;;20.33;;
64875;SDS011;51369;49.862;9.908;2024-01-30T12:38:01;29.52;;;19.38;;
64875;SDS011;51369;49.862;9.908;2024-01-30T12:40:27;29.20;;;19.35;;
64875;SDS011;51369;49.862;9.908;2024-01-30T12:42:53;31.27;;;20.00;;
64875;SDS011;51369;49.862;9.908;2024-01-30T12:45:18;28.08;;;19.48;;
64875;SDS011;51369;49.862;9.908;2024-01-30T12:47:47;32.20;;;19.02;;
64875;SDS011;51369;49.862;9.908;2024-01-30T12:50:13;31.75;;;19.90;;
64875;SDS011;51369;49.862;9.908;2024-01-30T12:52:40;29.23;;;18.33;;
64875;SDS011;51369;49.862;9.908;2024-01-30T12:55:07;30.15;;;19.33;;
64875;SDS011;51369;49.862;9.908;2024-01-30T12:57:33;35.60;;;20.50;;
64875;SDS011;51369;49.862;9.908;2024-01-30T12:59:58;35.05;;;20.15;;
64875;SDS011;51369;49.862;9.908;2024-01-30T13:02:23;39.08;;;19.35;;
64875;SDS011;51369;49.862;9.908;2024-01-30T13:04:49;28.90;;;19.15;;
64875;SDS011;51369;49.862;9.908;2024-01-30T13:07:15;34.55;;;18.80;;
64875;SDS011;51369;49.862;9.908;2024-01-30T13:09:40;31.08;;;19.85;;
64875;SDS011;51369;49.862;9.908;2024-01-30T13:12:06;31.88;;;20.00;;
64875;SDS011;51369;49.862;9.908;2024-01-30T13:14:32;35.97;;;19.90;;
64875;SDS011;51369;49.862;9.908;2024-01-30T13:16:57;29.60;;;19.15;;
64875;SDS011;51369;49.862;9.908;2024-01-30T13:19:23;31.23;;;19.33;;
64875;SDS011;51369;49.862;9.908;2024-01-30T13:21:48;30.73;;;20.55;;
64875;SDS011;51369;49.862;9.908;2024-01-30T13:24:14;33.70;;;19.88;;
64875;SDS011;51369;49.862;9.908;2024-01-30T13:26:39;31.83;;;19.27;;
64875;SDS011;51369;49.862;9.908;2024-01-30T13:29:05;33.30;;;19.45;;
64875;SDS011;51369;49.862;9.908;2024-01-30T13:31:30;32.30;;;19.58;;
64875;SDS011;51369;49.862;9.908;2024-01-30T13:33:55;32.33;;;18.90;;
64875;SDS011;51369;49.862;9.908;2024-01-30T13:36:21;34.33;;;20.50;;
64875;SDS011;51369;49.862;9.908;2024-01-30T13:38:47;33.17;;;20.23;;
64875;SDS011;51369;49.862;9.908;2024-01-30T13:41:12;29.63;;;18.30;;
64875;SDS011;51369;49.862;9.908;2024-01-30T13:43:38;29.30;;;18.02;;
64875;SDS011;51369;49.862;9.908;2024-01-30T13:46:03;25.98;;;18.02;;
64875;SDS011;51369;49.862;9.908;2024-01-30T13:48:29;27.52;;;18.08;;
64875;SDS011;51369;49.862;9.908;2024-01-30T13:50:54;30.73;;;18.08;;
64875;SDS011;51369;49.862;9.908;2024-01-30T13:53:20;30.33;;;19.08;;
64875;SDS011;51369;49.862;9.908;2024-01-30T13:55:46;26.80;;;17.58;;
64875;SDS011;51369;49.862;9.908;2024-01-30T13:58:12;25.45;;;17.98;;
64875;SDS011;51369;49.862;9.908;2024-01-30T14:00:37;31.48;;;18.75;;
64875;SDS011;51369;49.862;9.908;2024-01-30T14:03:03;29.38;;;18.58;;
64875;SDS011;51369;49.862;9.908;2024-01-30T14:05:28;26.33;;;16.98;;
64875;SDS011;51369;49.862;9.908;2024-01-30T14:07:54;28.38;;;18.42;;
64875;SDS011;51369;49.862;9.908;2024-01-30T14:10:19;30.73;;;18.63;;
64875;SDS011;51369;49.862;9.908;2024-01-30T14:12:45;31.88;;;18.95;;
64875;SDS011;51369;49.862;9.908;2024-01-30T14:15:13;30.55;;;19.95;;
64875;SDS011;51369;49.862;9.908;2024-01-30T14:17:40;28.10;;;18.33;;
64875;SDS011;51369;49.862;9.908;2024-01-30T14:20:06;32.13;;;18.05;;